Prairie Lake, Minnesota
Current Conditions -  °F | °C
As of 7:37 PM on Thursday 27 Nov 2014 (Local Time) from KCOQ Reporting Station
Clear Clear  
Wind Chill:   Ceiling: Unl
Heat Index:   Visibility: 10mi
Dew Point: -6°   Wind: 0mph
Humidity: 66%   Direction: NA
Pressure: 30.28"   Gusts: NA
Location:  46.9584°N, 92.9445°W
Report Text: KCOQ 280137Z AUTO 00000KT 10SM CLR M16/M21 A3028 RMK AO2
Loading
Personal Weather Stations






























Interactive Weather Map New forecast layout! Learn more

10-Day Weather Forecast

Advertisements
Track Severe Weather on mobile